Terminal Aerodrome Forecast
Issued by NWS

Home | Current Version | Previous Version | Text Only | Print | Product List | Glossary On
Versions: 1 2 3 4 5 6 7 8 9 10 11 12 13
208
FTUS45 KABQ 061139
TAFAEG
TAF
KAEG 061139Z 0612/0712 VRB06KT P6SM SCT100
     FM061500 15012KT P6SM FEW100
     FM061800 17015G25KT P6SM FEW090
     FM062100 19028G38KT P6SM SCT090
     FM070200 19012G20KT P6SM FEW100=

USA.gov is the U.S. government's official web portal to all federal, state and local government web resources and services.